sensor_id;sensor_type;location;lat;lon;timestamp;P1;durP1;ratioP1;P2;durP2;ratioP2
3979;SDS011;2004;52.452;13.120;2023-08-24T00:04:24;161.43;;;9.70;;
3979;SDS011;2004;52.452;13.120;2023-08-24T00:12:15;166.10;;;10.07;;
3979;SDS011;2004;52.452;13.120;2023-08-24T00:20:06;165.03;;;10.50;;
3979;SDS011;2004;52.452;13.120;2023-08-24T00:28:00;163.93;;;10.03;;
3979;SDS011;2004;52.452;13.120;2023-08-24T00:35:51;167.27;;;9.10;;
3979;SDS011;2004;52.452;13.120;2023-08-24T00:43:42;162.87;;;9.60;;
3979;SDS011;2004;52.452;13.120;2023-08-24T00:51:32;170.80;;;10.83;;
3979;SDS011;2004;52.452;13.120;2023-08-24T00:59:24;167.00;;;10.40;;
3979;SDS011;2004;52.452;13.120;2023-08-24T01:07:15;166.17;;;9.60;;
3979;SDS011;2004;52.452;13.120;2023-08-24T01:15:14;166.87;;;10.90;;
3979;SDS011;2004;52.452;13.120;2023-08-24T01:31:22;164.73;;;9.90;;
3979;SDS011;2004;52.452;13.120;2023-08-24T01:39:18;162.87;;;10.03;;
3979;SDS011;2004;52.452;13.120;2023-08-24T01:47:20;164.60;;;10.80;;
3979;SDS011;2004;52.452;13.120;2023-08-24T01:55:12;164.90;;;10.87;;
3979;SDS011;2004;52.452;13.120;2023-08-24T02:03:05;166.63;;;10.17;;
3979;SDS011;2004;52.452;13.120;2023-08-24T02:10:55;164.67;;;9.63;;
3979;SDS011;2004;52.452;13.120;2023-08-24T02:18:46;163.50;;;10.63;;
3979;SDS011;2004;52.452;13.120;2023-08-24T02:26:36;164.67;;;9.27;;
3979;SDS011;2004;52.452;13.120;2023-08-24T02:34:27;166.37;;;11.47;;
3979;SDS011;2004;52.452;13.120;2023-08-24T02:42:17;163.17;;;9.53;;
3979;SDS011;2004;52.452;13.120;2023-08-24T02:50:08;164.17;;;11.10;;
3979;SDS011;2004;52.452;13.120;2023-08-24T02:57:59;165.00;;;11.97;;
3979;SDS011;2004;52.452;13.120;2023-08-24T03:06:02;167.93;;;11.77;;
3979;SDS011;2004;52.452;13.120;2023-08-24T03:13:57;163.47;;;10.73;;
3979;SDS011;2004;52.452;13.120;2023-08-24T03:21:47;162.90;;;9.83;;
3979;SDS011;2004;52.452;13.120;2023-08-24T03:29:38;167.20;;;12.40;;
3979;SDS011;2004;52.452;13.120;2023-08-24T03:37:28;165.10;;;10.60;;
3979;SDS011;2004;52.452;13.120;2023-08-24T03:45:19;164.77;;;11.83;;
3979;SDS011;2004;52.452;13.120;2023-08-24T03:53:12;162.87;;;10.07;;
3979;SDS011;2004;52.452;13.120;2023-08-24T04:01:03;163.47;;;9.50;;
3979;SDS011;2004;52.452;13.120;2023-08-24T04:08:53;166.07;;;10.73;;
3979;SDS011;2004;52.452;13.120;2023-08-24T04:16:44;163.30;;;9.63;;
3979;SDS011;2004;52.452;13.120;2023-08-24T04:24:35;166.67;;;11.97;;
3979;SDS011;2004;52.452;13.120;2023-08-24T04:32:26;165.53;;;12.27;;
3979;SDS011;2004;52.452;13.120;2023-08-24T04:40:18;169.37;;;14.43;;
3979;SDS011;2004;52.452;13.120;2023-08-24T04:48:08;165.53;;;10.37;;
3979;SDS011;2004;52.452;13.120;2023-08-24T04:55:59;163.07;;;10.60;;
3979;SDS011;2004;52.452;13.120;2023-08-24T05:03:49;168.80;;;11.50;;
3979;SDS011;2004;52.452;13.120;2023-08-24T05:11:41;167.37;;;12.30;;
3979;SDS011;2004;52.452;13.120;2023-08-24T05:19:33;173.57;;;12.57;;
3979;SDS011;2004;52.452;13.120;2023-08-24T05:27:24;163.47;;;10.57;;
3979;SDS011;2004;52.452;13.120;2023-08-24T05:35:15;162.67;;;8.60;;
3979;SDS011;2004;52.452;13.120;2023-08-24T05:43:05;165.93;;;9.50;;
3979;SDS011;2004;52.452;13.120;2023-08-24T05:50:56;162.07;;;8.03;;
3979;SDS011;2004;52.452;13.120;2023-08-24T05:58:47;165.20;;;9.07;;
3979;SDS011;2004;52.452;13.120;2023-08-24T06:06:38;161.60;;;8.87;;
3979;SDS011;2004;52.452;13.120;2023-08-24T06:14:29;163.77;;;9.50;;
3979;SDS011;2004;52.452;13.120;2023-08-24T06:22:20;169.67;;;9.10;;
3979;SDS011;2004;52.452;13.120;2023-08-24T06:30:11;163.30;;;9.50;;
3979;SDS011;2004;52.452;13.120;2023-08-24T06:38:03;161.17;;;9.50;;
3979;SDS011;2004;52.452;13.120;2023-08-24T06:45:54;161.47;;;10.57;;
3979;SDS011;2004;52.452;13.120;2023-08-24T06:53:45;162.10;;;10.27;;
3979;SDS011;2004;52.452;13.120;2023-08-24T07:01:38;165.90;;;11.50;;
3979;SDS011;2004;52.452;13.120;2023-08-24T07:09:29;162.13;;;10.40;;
3979;SDS011;2004;52.452;13.120;2023-08-24T07:17:19;164.30;;;9.73;;
3979;SDS011;2004;52.452;13.120;2023-08-24T07:25:10;161.80;;;9.40;;
3979;SDS011;2004;52.452;13.120;2023-08-24T07:33:02;166.57;;;9.07;;
3979;SDS011;2004;52.452;13.120;2023-08-24T07:40:53;162.73;;;8.07;;
3979;SDS011;2004;52.452;13.120;2023-08-24T07:48:44;161.07;;;8.30;;
3979;SDS011;2004;52.452;13.120;2023-08-24T07:56:34;156.27;;;8.30;;
3979;SDS011;2004;52.452;13.120;2023-08-24T08:04:26;160.20;;;7.83;;
3979;SDS011;2004;52.452;13.120;2023-08-24T08:12:17;157.77;;;7.87;;
3979;SDS011;2004;52.452;13.120;2023-08-24T08:20:07;160.37;;;7.90;;
3979;SDS011;2004;52.452;13.120;2023-08-24T08:27:58;158.73;;;7.97;;
3979;SDS011;2004;52.452;13.120;2023-08-24T08:35:49;154.87;;;7.60;;
3979;SDS011;2004;52.452;13.120;2023-08-24T08:43:40;159.40;;;8.50;;
3979;SDS011;2004;52.452;13.120;2023-08-24T08:51:31;156.47;;;7.50;;
3979;SDS011;2004;52.452;13.120;2023-08-24T08:59:23;157.17;;;8.40;;
3979;SDS011;2004;52.452;13.120;2023-08-24T09:07:16;156.07;;;8.93;;
3979;SDS011;2004;52.452;13.120;2023-08-24T09:15:07;157.47;;;8.90;;
3979;SDS011;2004;52.452;13.120;2023-08-24T09:22:58;155.87;;;8.90;;
3979;SDS011;2004;52.452;13.120;2023-08-24T09:30:51;159.73;;;9.47;;
3979;SDS011;2004;52.452;13.120;2023-08-24T09:38:47;156.53;;;9.00;;
3979;SDS011;2004;52.452;13.120;2023-08-24T09:46:42;155.73;;;9.33;;
3979;SDS011;2004;52.452;13.120;2023-08-24T09:54:37;157.90;;;8.23;;
3979;SDS011;2004;52.452;13.120;2023-08-24T10:02:30;153.30;;;8.07;;
3979;SDS011;2004;52.452;13.120;2023-08-24T10:10:26;156.60;;;8.30;;
3979;SDS011;2004;52.452;13.120;2023-08-24T10:18:19;157.30;;;9.10;;
3979;SDS011;2004;52.452;13.120;2023-08-24T10:26:10;157.90;;;8.73;;
3979;SDS011;2004;52.452;13.120;2023-08-24T10:34:04;155.57;;;9.90;;
3979;SDS011;2004;52.452;13.120;2023-08-24T10:41:56;157.40;;;8.07;;
3979;SDS011;2004;52.452;13.120;2023-08-24T10:57:52;156.47;;;8.27;;
3979;SDS011;2004;52.452;13.120;2023-08-24T11:05:51;158.77;;;8.77;;
3979;SDS011;2004;52.452;13.120;2023-08-24T11:13:50;158.70;;;8.00;;
3979;SDS011;2004;52.452;13.120;2023-08-24T11:22:11;152.07;;;7.77;;
3979;SDS011;2004;52.452;13.120;2023-08-24T11:30:03;160.03;;;9.33;;
3979;SDS011;2004;52.452;13.120;2023-08-24T11:37:55;151.70;;;7.97;;
3979;SDS011;2004;52.452;13.120;2023-08-24T11:45:46;157.77;;;7.83;;
3979;SDS011;2004;52.452;13.120;2023-08-24T11:53:40;153.47;;;8.20;;
3979;SDS011;2004;52.452;13.120;2023-08-24T12:01:32;156.63;;;10.40;;
3979;SDS011;2004;52.452;13.120;2023-08-24T12:09:23;151.40;;;8.87;;
3979;SDS011;2004;52.452;13.120;2023-08-24T12:17:19;155.57;;;10.07;;
3979;SDS011;2004;52.452;13.120;2023-08-24T12:25:09;157.73;;;8.80;;
3979;SDS011;2004;52.452;13.120;2023-08-24T12:33:00;151.50;;;8.70;;
3979;SDS011;2004;52.452;13.120;2023-08-24T12:40:51;157.43;;;8.93;;
3979;SDS011;2004;52.452;13.120;2023-08-24T12:48:42;151.47;;;8.50;;
3979;SDS011;2004;52.452;13.120;2023-08-24T12:56:33;155.13;;;9.57;;
3979;SDS011;2004;52.452;13.120;2023-08-24T13:04:25;153.47;;;9.27;;
3979;SDS011;2004;52.452;13.120;2023-08-24T13:12:18;152.87;;;9.00;;
3979;SDS011;2004;52.452;13.120;2023-08-24T13:20:08;154.53;;;9.37;;
3979;SDS011;2004;52.452;13.120;2023-08-24T13:28:00;155.07;;;9.27;;
3979;SDS011;2004;52.452;13.120;2023-08-24T13:35:51;162.13;;;9.23;;
3979;SDS011;2004;52.452;13.120;2023-08-24T13:43:42;155.90;;;9.03;;
3979;SDS011;2004;52.452;13.120;2023-08-24T13:51:32;151.47;;;7.50;;
3979;SDS011;2004;52.452;13.120;2023-08-24T13:59:23;153.80;;;9.10;;
3979;SDS011;2004;52.452;13.120;2023-08-24T14:07:13;153.87;;;9.43;;
3979;SDS011;2004;52.452;13.120;2023-08-24T14:15:04;154.93;;;8.70;;
3979;SDS011;2004;52.452;13.120;2023-08-24T14:22:56;152.60;;;8.00;;
3979;SDS011;2004;52.452;13.120;2023-08-24T14:30:47;152.23;;;9.50;;
3979;SDS011;2004;52.452;13.120;2023-08-24T14:38:41;150.57;;;8.80;;
3979;SDS011;2004;52.452;13.120;2023-08-24T14:46:32;151.07;;;8.80;;
3979;SDS011;2004;52.452;13.120;2023-08-24T14:54:23;168.20;;;8.53;;
3979;SDS011;2004;52.452;13.120;2023-08-24T15:02:14;152.53;;;9.47;;
3979;SDS011;2004;52.452;13.120;2023-08-24T15:10:05;154.17;;;9.50;;
3979;SDS011;2004;52.452;13.120;2023-08-24T15:17:56;160.47;;;8.20;;
3979;SDS011;2004;52.452;13.120;2023-08-24T15:25:47;149.47;;;8.43;;
3979;SDS011;2004;52.452;13.120;2023-08-24T15:33:37;152.47;;;8.47;;
3979;SDS011;2004;52.452;13.120;2023-08-24T15:41:29;152.57;;;8.97;;
3979;SDS011;2004;52.452;13.120;2023-08-24T15:49:19;153.30;;;9.00;;
3979;SDS011;2004;52.452;13.120;2023-08-24T15:57:12;152.57;;;9.13;;
3979;SDS011;2004;52.452;13.120;2023-08-24T16:05:04;150.33;;;7.97;;
3979;SDS011;2004;52.452;13.120;2023-08-24T16:12:55;151.60;;;8.70;;
3979;SDS011;2004;52.452;13.120;2023-08-24T16:20:46;150.67;;;8.77;;
3979;SDS011;2004;52.452;13.120;2023-08-24T16:28:36;150.67;;;8.70;;
3979;SDS011;2004;52.452;13.120;2023-08-24T16:36:27;153.53;;;8.20;;
3979;SDS011;2004;52.452;13.120;2023-08-24T16:44:17;155.87;;;9.00;;
3979;SDS011;2004;52.452;13.120;2023-08-24T16:52:08;151.27;;;8.03;;
3979;SDS011;2004;52.452;13.120;2023-08-24T16:59:58;150.40;;;8.93;;
3979;SDS011;2004;52.452;13.120;2023-08-24T17:08:03;153.80;;;9.60;;
3979;SDS011;2004;52.452;13.120;2023-08-24T17:15:55;150.20;;;8.50;;
3979;SDS011;2004;52.452;13.120;2023-08-24T17:23:45;150.10;;;9.03;;
3979;SDS011;2004;52.452;13.120;2023-08-24T17:31:36;158.00;;;9.60;;
3979;SDS011;2004;52.452;13.120;2023-08-24T17:39:26;153.93;;;10.10;;
3979;SDS011;2004;52.452;13.120;2023-08-24T17:47:19;151.77;;;9.13;;
3979;SDS011;2004;52.452;13.120;2023-08-24T17:55:10;154.40;;;8.20;;
3979;SDS011;2004;52.452;13.120;2023-08-24T18:03:01;155.43;;;8.90;;
3979;SDS011;2004;52.452;13.120;2023-08-24T18:10:51;155.50;;;9.37;;
3979;SDS011;2004;52.452;13.120;2023-08-24T18:18:42;154.93;;;9.53;;
3979;SDS011;2004;52.452;13.120;2023-08-24T18:26:33;155.10;;;8.83;;
3979;SDS011;2004;52.452;13.120;2023-08-24T18:34:23;161.10;;;8.53;;
3979;SDS011;2004;52.452;13.120;2023-08-24T18:42:15;161.97;;;9.77;;
3979;SDS011;2004;52.452;13.120;2023-08-24T18:50:06;155.40;;;9.43;;
3979;SDS011;2004;52.452;13.120;2023-08-24T18:57:56;155.27;;;9.37;;
3979;SDS011;2004;52.452;13.120;2023-08-24T19:05:47;160.47;;;10.17;;
3979;SDS011;2004;52.452;13.120;2023-08-24T19:13:39;160.23;;;9.97;;
3979;SDS011;2004;52.452;13.120;2023-08-24T19:21:29;156.03;;;11.17;;
3979;SDS011;2004;52.452;13.120;2023-08-24T19:29:20;161.50;;;10.30;;
3979;SDS011;2004;52.452;13.120;2023-08-24T19:37:11;158.97;;;11.87;;
3979;SDS011;2004;52.452;13.120;2023-08-24T19:45:01;161.33;;;11.47;;
3979;SDS011;2004;52.452;13.120;2023-08-24T19:52:52;155.93;;;11.13;;
3979;SDS011;2004;52.452;13.120;2023-08-24T20:00:43;161.20;;;11.80;;
3979;SDS011;2004;52.452;13.120;2023-08-24T20:08:33;159.57;;;13.07;;
3979;SDS011;2004;52.452;13.120;2023-08-24T20:16:24;161.77;;;11.90;;
3979;SDS011;2004;52.452;13.120;2023-08-24T20:24:14;165.10;;;11.17;;
3979;SDS011;2004;52.452;13.120;2023-08-24T20:32:05;161.77;;;11.37;;
3979;SDS011;2004;52.452;13.120;2023-08-24T20:39:55;162.17;;;11.53;;
3979;SDS011;2004;52.452;13.120;2023-08-24T20:47:46;158.67;;;10.40;;
3979;SDS011;2004;52.452;13.120;2023-08-24T20:55:37;156.07;;;9.90;;
3979;SDS011;2004;52.452;13.120;2023-08-24T21:03:27;159.83;;;10.33;;
3979;SDS011;2004;52.452;13.120;2023-08-24T21:11:18;159.53;;;10.10;;
3979;SDS011;2004;52.452;13.120;2023-08-24T21:19:09;155.73;;;9.77;;
3979;SDS011;2004;52.452;13.120;2023-08-24T21:26:59;157.37;;;10.00;;
3979;SDS011;2004;52.452;13.120;2023-08-24T21:34:50;160.30;;;10.30;;
3979;SDS011;2004;52.452;13.120;2023-08-24T21:42:41;163.67;;;10.80;;
3979;SDS011;2004;52.452;13.120;2023-08-24T21:50:32;165.53;;;10.67;;
3979;SDS011;2004;52.452;13.120;2023-08-24T21:58:24;156.53;;;11.17;;
3979;SDS011;2004;52.452;13.120;2023-08-24T22:06:15;157.77;;;10.20;;
3979;SDS011;2004;52.452;13.120;2023-08-24T22:14:05;157.70;;;10.70;;
3979;SDS011;2004;52.452;13.120;2023-08-24T22:21:56;161.37;;;11.17;;
3979;SDS011;2004;52.452;13.120;2023-08-24T22:29:46;160.77;;;10.50;;
3979;SDS011;2004;52.452;13.120;2023-08-24T22:37:37;157.90;;;10.60;;
3979;SDS011;2004;52.452;13.120;2023-08-24T22:45:37;161.57;;;10.80;;
3979;SDS011;2004;52.452;13.120;2023-08-24T22:53:28;161.67;;;12.00;;
3979;SDS011;2004;52.452;13.120;2023-08-24T23:01:19;156.63;;;9.50;;
3979;SDS011;2004;52.452;13.120;2023-08-24T23:09:11;157.23;;;10.93;;
3979;SDS011;2004;52.452;13.120;2023-08-24T23:17:05;157.40;;;10.00;;
3979;SDS011;2004;52.452;13.120;2023-08-24T23:24:55;162.40;;;10.43;;
3979;SDS011;2004;52.452;13.120;2023-08-24T23:32:46;158.67;;;10.70;;
3979;SDS011;2004;52.452;13.120;2023-08-24T23:40:37;161.27;;;11.27;;
3979;SDS011;2004;52.452;13.120;2023-08-24T23:48:27;164.30;;;10.17;;
3979;SDS011;2004;52.452;13.120;2023-08-24T23:56:18;159.00;;;9.77;;
